Terminal Aerodrome Forecast
Issued by NWS

Current Version | Previous Version | Graphics & Text | Print | Product List | Glossary On
Versions: 1 2 3 4 5 6 7 8 9 10 11 12 13 14 15 16 17 18 19 20 21 22 23 24 25
000
FTUS41 KILN 040500 RRA
TAFLUK
TAF
KLUK 040548Z 0406/0506 31005KT 5SM -RA BR SCT010 OVC040
      TEMPO 0406/0409 BKN010
     FM040900 33004KT 4SM -RA BR OVC015
     FM041100 34006KT 2SM -RA BR OVC008
     FM041700 33008KT 3SM -RAPL BR OVC008
     FM041900 33010KT 1SM -SN OVC006
     FM050100 35011KT 3SM -SN OVC012=

USA.gov is the U.S. government's official web portal to all federal, state and local government web resources and services.